createdAt,value
2017-06-24T00:02:25.838Z,51.80
2017-06-24T00:04:54.165Z,51.70
2017-06-24T00:07:21.707Z,51.70
2017-06-24T00:09:49.270Z,51.20
2017-06-24T00:12:16.798Z,51.30
2017-06-24T00:14:45.106Z,51.20
2017-06-24T00:17:12.632Z,51.20
2017-06-24T00:19:40.967Z,51.70
2017-06-24T00:22:08.490Z,51.60
2017-06-24T00:24:36.028Z,52.30
2017-06-24T00:27:04.342Z,53.30
2017-06-24T00:29:31.868Z,53.30
2017-06-24T00:32:00.187Z,54.30
2017-06-24T00:34:27.714Z,54.30
2017-06-24T00:36:55.261Z,54.30
2017-06-24T00:39:23.561Z,54.50
2017-06-24T00:41:51.117Z,54.50
2017-06-24T00:44:18.652Z,54.80
2017-06-24T00:46:46.974Z,55.80
2017-06-24T00:49:15.021Z,55.80
2017-06-24T00:51:42.558Z,55.60
2017-06-24T00:54:10.111Z,55.60
2017-06-24T00:56:38.411Z,55.60
2017-06-24T00:59:05.974Z,55.50
2017-06-24T01:01:33.517Z,55.20
2017-06-24T01:04:01.838Z,54.60
2017-06-24T01:06:29.370Z,54.60
2017-06-24T01:08:56.927Z,54.50
2017-06-24T01:11:24.459Z,54.50
2017-06-24T01:13:52.755Z,55.40
2017-06-24T01:16:20.327Z,54.50
2017-06-24T01:18:47.924Z,54.50
2017-06-24T01:21:15.498Z,54.50
2017-06-24T01:23:43.043Z,54.50
2017-06-24T01:26:10.602Z,54.50
2017-06-24T01:28:38.134Z,53.90
2017-06-24T01:31:05.681Z,54.00
2017-06-24T01:33:33.220Z,53.50
2017-06-24T01:36:01.553Z,53.10
2017-06-24T01:38:29.083Z,53.10
2017-06-24T01:40:56.637Z,53.20
2017-06-24T01:43:24.170Z,53.10
2017-06-24T01:45:52.494Z,54.00
2017-06-24T01:48:20.026Z,53.90
2017-06-24T01:50:47.560Z,54.50
2017-06-24T01:53:15.880Z,54.90
2017-06-24T01:55:43.420Z,54.90
2017-06-24T01:58:10.983Z,55.40
2017-06-24T02:00:38.526Z,55.30
2017-06-24T02:03:06.084Z,55.40
2017-06-24T02:05:33.626Z,55.70
2017-06-24T02:08:01.158Z,55.50
2017-06-24T02:10:28.709Z,55.20
2017-06-24T02:12:56.239Z,54.60
2017-06-24T02:15:23.805Z,54.40
2017-06-24T02:17:51.436Z,55.10
2017-06-24T02:20:20.345Z,55.00
2017-06-24T02:22:47.888Z,54.90
2017-06-24T02:25:16.218Z,55.10
2017-06-24T02:27:43.742Z,55.00
2017-06-24T02:30:11.297Z,55.10
2017-06-24T02:32:38.841Z,55.20
2017-06-24T02:35:06.383Z,55.40
2017-06-24T02:37:33.930Z,55.80
2017-06-24T02:40:01.460Z,55.60
2017-06-24T02:42:29.002Z,56.20
2017-06-24T02:44:56.530Z,56.60
2017-06-24T02:47:24.851Z,57.00
2017-06-24T02:49:52.378Z,57.00
2017-06-24T02:52:19.927Z,57.30
2017-06-24T02:54:48.726Z,58.00
2017-06-24T02:57:16.297Z,58.00
2017-06-24T02:59:43.826Z,58.10
2017-06-24T03:02:12.115Z,58.00
2017-06-24T03:04:39.666Z,58.00
2017-06-24T03:07:07.961Z,58.00
2017-06-24T03:09:38.527Z,58.00
2017-06-24T03:12:29.788Z,58.10
2017-06-24T03:14:58.098Z,57.70
2017-06-24T03:17:25.624Z,57.60
2017-06-24T03:19:53.943Z,57.40
2017-06-24T03:22:21.472Z,57.40
2017-06-24T03:24:49.026Z,57.40
2017-06-24T03:27:17.314Z,58.00
2017-06-24T03:29:44.867Z,57.30
2017-06-24T03:32:12.433Z,58.10
2017-06-24T03:34:39.959Z,58.10
2017-06-24T03:37:07.506Z,57.80
2017-06-24T03:39:35.034Z,57.70
2017-06-24T03:42:02.585Z,57.20
2017-06-24T03:44:30.113Z,58.00
2017-06-24T03:46:58.426Z,56.90
2017-06-24T03:49:29.070Z,56.90
2017-06-24T03:51:56.645Z,56.40
2017-06-24T03:54:24.175Z,56.60
2017-06-24T03:56:51.709Z,56.00
2017-06-24T03:59:19.260Z,54.80
2017-06-24T04:01:46.801Z,54.80
2017-06-24T04:04:15.120Z,53.30
2017-06-24T04:06:42.695Z,53.80
2017-06-24T04:09:10.250Z,53.10
2017-06-24T04:11:37.779Z,52.90
2017-06-24T04:14:05.351Z,52.20
2017-06-24T04:16:32.877Z,51.50
2017-06-24T04:19:01.175Z,50.90
2017-06-24T04:21:28.713Z,50.90
2017-06-24T04:23:57.826Z,47.00
2017-06-24T04:26:26.136Z,37.50
2017-06-24T04:28:53.658Z,37.40
2017-06-24T04:31:21.979Z,24.00
2017-06-24T04:33:49.529Z,23.90
2017-06-24T04:36:17.094Z,21.10
2017-06-24T04:38:44.675Z,18.50
2017-06-24T04:41:12.203Z,17.00
2017-06-24T04:43:39.746Z,15.00
2017-06-24T04:46:07.270Z,13.80
2017-06-24T04:48:34.815Z,12.60
2017-06-24T04:51:02.355Z,11.80
2017-06-24T04:53:29.900Z,10.90
2017-06-24T04:55:57.425Z,10.50
2017-06-24T04:58:25.758Z,10.20
2017-06-24T05:00:53.295Z,10.20
2017-06-24T05:03:20.816Z,9.90
2017-06-24T05:05:49.119Z,9.60
2017-06-24T05:08:16.637Z,9.50
2017-06-24T05:10:44.182Z,9.40
2017-06-24T05:13:11.698Z,8.80
2017-06-24T05:15:39.369Z,8.40
2017-06-24T05:18:06.878Z,8.20
2017-06-24T05:20:34.415Z,8.20
2017-06-24T05:23:01.930Z,8.00
2017-06-24T05:25:29.477Z,8.30
2017-06-24T05:27:56.989Z,8.10
2017-06-24T05:30:24.511Z,7.80
2017-06-24T05:32:52.045Z,7.60
2017-06-24T05:35:20.331Z,7.00
2017-06-24T05:37:47.872Z,7.00
2017-06-24T05:40:16.155Z,8.00
2017-06-24T05:42:43.721Z,7.50
2017-06-24T05:45:11.254Z,7.60
2017-06-24T05:47:38.794Z,7.30
2017-06-24T05:50:06.314Z,7.10
2017-06-24T05:52:33.874Z,8.30
2017-06-24T05:55:01.402Z,11.60
2017-06-24T05:57:29.700Z,13.60
2017-06-24T05:59:57.246Z,13.50
2017-06-24T06:02:25.530Z,9.40
2017-06-24T06:04:53.080Z,9.40
2017-06-24T06:07:21.364Z,8.60
2017-06-24T06:09:48.930Z,8.50
2017-06-24T06:12:16.445Z,8.50
2017-06-24T06:14:43.987Z,8.60
2017-06-24T06:17:11.509Z,8.30
2017-06-24T06:19:39.058Z,8.10
2017-06-24T06:22:06.578Z,7.70
2017-06-24T06:24:34.159Z,7.60
2017-06-24T06:27:02.470Z,8.10
2017-06-24T06:29:29.983Z,8.00
2017-06-24T06:31:57.514Z,8.00
2017-06-24T06:34:25.033Z,7.90
2017-06-24T06:36:52.576Z,7.80
2017-06-24T06:39:20.853Z,8.70
2017-06-24T06:41:49.161Z,10.30
2017-06-24T06:44:16.713Z,10.20
2017-06-24T06:46:44.230Z,10.30
2017-06-24T06:49:12.526Z,10.90
2017-06-24T06:51:40.833Z,12.80
2017-06-24T06:54:08.358Z,12.70
2017-06-24T06:56:36.674Z,16.60
2017-06-24T06:59:04.190Z,16.50
2017-06-24T07:01:32.515Z,18.90
2017-06-24T07:04:00.043Z,18.80
2017-06-24T07:06:27.588Z,19.70
2017-06-24T07:08:55.895Z,22.40
2017-06-24T07:11:23.443Z,22.40
2017-06-24T07:13:50.990Z,22.30
2017-06-24T07:16:18.523Z,22.40
2017-06-24T07:18:46.089Z,22.20
2017-06-24T07:21:14.384Z,24.40
2017-06-24T07:23:41.915Z,23.90
2017-06-24T07:26:09.464Z,23.90
2017-06-24T07:28:36.988Z,23.20
2017-06-24T07:31:04.534Z,23.10
2017-06-24T07:33:32.058Z,22.80
2017-06-24T07:36:00.366Z,23.80
2017-06-24T07:38:27.921Z,23.30
2017-06-24T07:40:55.451Z,22.60
2017-06-24T07:43:22.991Z,22.40
2017-06-24T07:45:50.517Z,22.20
2017-06-24T07:48:18.064Z,22.90
2017-06-24T07:50:45.594Z,23.40
2017-06-24T07:53:13.888Z,22.40
2017-06-24T07:55:41.430Z,22.40
2017-06-24T07:58:09.714Z,22.40
2017-06-24T08:00:38.023Z,22.20
2017-06-24T08:03:05.551Z,22.20
2017-06-24T08:05:33.869Z,22.30
2017-06-24T08:08:01.399Z,22.20
2017-06-24T08:10:28.931Z,22.50
2017-06-24T08:12:57.318Z,22.60
2017-06-24T08:15:25.607Z,22.00
2017-06-24T08:17:53.159Z,21.90
2017-06-24T08:20:20.689Z,21.60
2017-06-24T08:22:48.298Z,21.60
2017-06-24T08:25:15.867Z,21.50
2017-06-24T08:27:43.414Z,22.00
2017-06-24T08:30:11.029Z,21.10
2017-06-24T08:32:38.616Z,20.60
2017-06-24T08:35:06.915Z,20.90
2017-06-24T08:37:34.483Z,20.90
2017-06-24T08:40:02.035Z,20.80
2017-06-24T08:42:29.611Z,20.50
2017-06-24T08:44:57.147Z,20.70
2017-06-24T08:47:24.745Z,20.20
2017-06-24T08:49:52.312Z,20.40
2017-06-24T08:52:20.767Z,19.60
2017-06-24T08:54:48.348Z,19.20
2017-06-24T08:57:19.585Z,19.40
2017-06-24T08:59:47.229Z,19.30
2017-06-24T09:02:14.780Z,20.60
2017-06-24T09:04:42.327Z,20.80
2017-06-24T09:07:09.955Z,20.60
2017-06-24T09:09:37.473Z,20.50
2017-06-24T09:12:05.010Z,20.40
2017-06-24T09:14:36.025Z,19.60
2017-06-24T09:17:04.319Z,20.40
2017-06-24T09:19:31.867Z,20.40
2017-06-24T09:21:59.395Z,19.20
2017-06-24T09:24:26.945Z,19.10
2017-06-24T09:26:54.489Z,17.90
2017-06-24T09:29:22.334Z,18.50
2017-06-24T09:31:49.862Z,17.90
2017-06-24T09:34:18.213Z,17.50
2017-06-24T09:36:45.775Z,17.50
2017-06-24T09:39:13.298Z,17.80
2017-06-24T09:41:40.954Z,18.10
2017-06-24T09:44:08.518Z,18.40
2017-06-24T09:46:36.042Z,16.50
2017-06-24T09:49:07.614Z,17.10
2017-06-24T09:51:35.187Z,17.10
2017-06-24T09:54:02.722Z,17.00
2017-06-24T09:56:30.257Z,17.30
2017-06-24T09:58:58.558Z,17.00
2017-06-24T10:01:27.014Z,16.90
2017-06-24T10:03:55.334Z,17.20
2017-06-24T10:06:22.858Z,16.90
2017-06-24T10:08:51.160Z,17.90
2017-06-24T10:11:18.703Z,17.90
2017-06-24T10:13:47.005Z,19.10
2017-06-24T10:16:14.523Z,19.10
2017-06-24T10:18:42.857Z,17.10
2017-06-24T10:21:10.384Z,17.10
2017-06-24T10:23:37.908Z,16.50
2017-06-24T10:26:06.222Z,16.50
2017-06-24T10:28:33.820Z,15.80
2017-06-24T10:31:01.380Z,16.20
2017-06-24T10:33:28.903Z,16.20
2017-06-24T10:35:56.830Z,16.10
2017-06-24T10:38:24.346Z,16.10
2017-06-24T10:40:51.886Z,16.80
2017-06-24T10:43:19.410Z,16.60
2017-06-24T10:45:46.970Z,16.20
2017-06-24T10:48:15.259Z,16.80
2017-06-24T10:50:43.561Z,15.40
2017-06-24T10:53:11.107Z,15.40
2017-06-24T10:55:39.146Z,16.40
2017-06-24T10:58:06.686Z,15.70
2017-06-24T11:00:34.207Z,15.70
2017-06-24T11:03:01.756Z,15.20
2017-06-24T11:05:29.285Z,15.60
2017-06-24T11:07:57.609Z,15.20
2017-06-24T11:10:25.126Z,15.20
2017-06-24T11:12:53.413Z,15.20
2017-06-24T11:15:20.966Z,15.10
2017-06-24T11:17:49.259Z,15.50
2017-06-24T11:20:16.826Z,15.50
2017-06-24T11:22:44.358Z,15.50
2017-06-24T11:25:12.710Z,15.00
2017-06-24T11:27:40.335Z,15.00
2017-06-24T11:30:07.881Z,15.00
2017-06-24T11:32:35.415Z,13.70
2017-06-24T11:35:03.748Z,14.60
2017-06-24T11:37:31.264Z,14.50
2017-06-24T11:39:58.803Z,14.80
2017-06-24T11:42:27.114Z,14.80
2017-06-24T11:44:55.401Z,14.60
2017-06-24T11:47:22.947Z,14.50
2017-06-24T11:49:53.698Z,14.50
2017-06-24T11:52:21.253Z,14.60
2017-06-24T11:54:48.762Z,14.80
2017-06-24T11:57:16.309Z,14.60
2017-06-24T11:59:43.878Z,15.00
2017-06-24T12:02:11.402Z,14.60
2017-06-24T12:04:38.946Z,14.70
2017-06-24T12:07:06.470Z,15.20
2017-06-24T12:09:34.034Z,15.70
2017-06-24T12:12:02.318Z,16.40
2017-06-24T12:14:29.834Z,16.30
2017-06-24T12:16:57.369Z,15.30
2017-06-24T12:19:24.896Z,16.00
2017-06-24T12:21:52.437Z,14.60
2017-06-24T12:24:20.738Z,15.20
2017-06-24T12:26:48.283Z,15.10
2017-06-24T12:29:15.830Z,14.70
2017-06-24T12:31:44.113Z,17.60
2017-06-24T12:34:11.663Z,17.50
2017-06-24T12:36:39.965Z,15.40
2017-06-24T12:39:07.512Z,15.40
2017-06-24T12:41:35.035Z,14.30
2017-06-24T12:44:03.364Z,17.80
2017-06-24T12:46:34.529Z,17.90
2017-06-24T12:49:02.080Z,18.30
2017-06-24T12:51:29.633Z,18.50
2017-06-24T12:53:57.157Z,19.30
2017-06-24T12:56:24.714Z,19.20
2017-06-24T12:58:53.010Z,18.30
2017-06-24T13:01:20.550Z,18.30
2017-06-24T13:03:48.846Z,18.70
2017-06-24T13:06:16.417Z,18.60
2017-06-24T13:08:43.950Z,18.60
2017-06-24T13:11:12.245Z,18.20
2017-06-24T13:13:43.207Z,18.80
2017-06-24T13:16:10.755Z,17.90
2017-06-24T13:18:38.284Z,18.20
2017-06-24T13:21:06.611Z,18.50
2017-06-24T13:23:34.132Z,18.40
2017-06-24T13:26:01.650Z,18.20
2017-06-24T13:28:29.198Z,18.20
2017-06-24T13:30:56.778Z,19.00
2017-06-24T13:33:24.323Z,19.10
2017-06-24T13:35:51.882Z,18.90
2017-06-24T13:38:19.455Z,19.50
2017-06-24T13:40:46.979Z,19.60
2017-06-24T13:43:14.521Z,18.20
2017-06-24T13:45:42.111Z,17.90
2017-06-24T13:48:09.678Z,18.60
2017-06-24T13:50:37.230Z,18.80
2017-06-24T13:53:04.777Z,19.10
2017-06-24T13:55:32.410Z,19.50
2017-06-24T13:57:59.942Z,19.30
2017-06-24T14:00:28.233Z,19.70
2017-06-24T14:02:55.791Z,19.60
2017-06-24T14:05:23.320Z,18.40
2017-06-24T14:07:50.862Z,18.40
2017-06-24T14:10:18.377Z,19.10
2017-06-24T14:12:45.934Z,19.10
2017-06-24T14:15:13.498Z,18.60
2017-06-24T14:17:41.052Z,18.10
2017-06-24T14:20:08.608Z,18.80
2017-06-24T14:22:36.193Z,18.20
2017-06-24T14:25:03.765Z,19.60
2017-06-24T14:27:31.290Z,19.00
2017-06-24T14:29:58.858Z,19.80
2017-06-24T14:32:26.380Z,20.10
2017-06-24T14:34:54.700Z,19.20
2017-06-24T14:37:22.243Z,19.20
2017-06-24T14:39:49.767Z,16.20
2017-06-24T14:42:18.075Z,17.60
2017-06-24T14:44:45.599Z,17.40
2017-06-24T14:47:13.154Z,18.80
2017-06-24T14:49:40.697Z,16.60
2017-06-24T14:52:08.223Z,14.90
2017-06-24T14:54:35.780Z,15.20
2017-06-24T14:57:03.305Z,14.80
2017-06-24T14:59:32.526Z,14.90
2017-06-24T15:02:00.043Z,14.70
2017-06-24T15:04:27.601Z,15.90
2017-06-24T15:06:55.182Z,15.40
2017-06-24T15:09:22.701Z,16.00
2017-06-24T15:11:50.247Z,16.60
2017-06-24T15:14:17.794Z,16.30
2017-06-24T15:16:45.369Z,16.40
2017-06-24T15:19:12.890Z,16.50
2017-06-24T15:21:40.446Z,16.90
2017-06-24T15:24:07.974Z,17.00
2017-06-24T15:26:35.619Z,16.40
2017-06-24T15:29:03.179Z,15.80
2017-06-24T15:31:30.741Z,17.00
2017-06-24T15:33:58.269Z,17.00
2017-06-24T15:36:25.790Z,17.00
2017-06-24T15:38:54.123Z,17.60
2017-06-24T15:41:21.655Z,17.60
2017-06-24T15:43:49.205Z,17.40
2017-06-24T15:46:16.730Z,17.40
2017-06-24T15:48:45.025Z,17.40
2017-06-24T15:51:12.575Z,16.90
2017-06-24T15:53:40.887Z,16.50
2017-06-24T15:56:08.447Z,16.50
2017-06-24T15:58:36.026Z,16.20
2017-06-24T16:01:03.578Z,16.90
2017-06-24T16:03:31.118Z,16.40
2017-06-24T16:05:58.667Z,16.80
2017-06-24T16:08:29.186Z,16.90
2017-06-24T16:10:56.722Z,17.90
2017-06-24T16:13:24.258Z,17.60
2017-06-24T16:15:51.794Z,17.30
2017-06-24T16:18:19.338Z,17.20
2017-06-24T16:20:46.877Z,16.40
2017-06-24T16:23:14.418Z,16.90
2017-06-24T16:25:42.718Z,16.90
2017-06-24T16:28:10.264Z,17.30
2017-06-24T16:30:38.564Z,17.90
2017-06-24T16:33:06.107Z,17.90
2017-06-24T16:35:33.647Z,17.90
2017-06-24T16:38:01.934Z,18.70
2017-06-24T16:40:30.238Z,18.20
2017-06-24T16:42:57.766Z,18.20
2017-06-24T16:45:25.314Z,18.10
2017-06-24T16:47:52.893Z,17.90
2017-06-24T16:50:21.210Z,18.00
2017-06-24T16:52:48.740Z,17.90
2017-06-24T16:55:16.266Z,18.60
2017-06-24T16:57:43.989Z,19.10
2017-06-24T17:00:11.514Z,18.90
2017-06-24T17:02:39.065Z,18.50
2017-06-24T17:05:07.359Z,19.50
2017-06-24T17:07:34.899Z,19.40
2017-06-24T17:10:03.211Z,18.90
2017-06-24T17:12:30.743Z,18.90
2017-06-24T17:14:58.287Z,19.40
2017-06-24T17:17:26.583Z,19.70
2017-06-24T17:19:54.132Z,19.70
2017-06-24T17:22:21.671Z,19.50
2017-06-24T17:25:15.409Z,19.40
2017-06-24T17:27:42.931Z,19.10
2017-06-24T17:30:10.460Z,19.60
2017-06-24T17:32:38.784Z,20.30
2017-06-24T17:35:06.310Z,20.20
2017-06-24T17:37:34.637Z,21.10
2017-06-24T17:40:02.187Z,21.00
2017-06-24T17:42:29.722Z,20.80
2017-06-24T17:44:57.260Z,21.80
2017-06-24T17:47:25.568Z,21.70
2017-06-24T17:49:53.094Z,21.60
2017-06-24T17:52:21.399Z,21.60
2017-06-24T17:54:48.924Z,21.60
2017-06-24T17:57:17.237Z,21.80
2017-06-24T17:59:44.763Z,21.70
2017-06-24T18:02:13.061Z,22.20
2017-06-24T18:04:40.618Z,22.10
2017-06-24T18:07:08.135Z,22.60
2017-06-24T18:09:35.683Z,22.90
2017-06-24T18:12:03.214Z,23.30
2017-06-24T18:14:30.739Z,23.70
2017-06-24T18:16:59.048Z,24.10
2017-06-24T18:19:26.603Z,24.10
2017-06-24T18:21:54.119Z,24.60
2017-06-24T18:24:22.410Z,24.70
2017-06-24T18:26:50.723Z,25.30
2017-06-24T18:29:18.241Z,25.20
2017-06-24T18:31:46.618Z,25.60
2017-06-24T18:34:14.907Z,25.60
2017-06-24T18:36:42.441Z,25.60
2017-06-24T18:39:10.746Z,26.10
2017-06-24T18:41:38.287Z,26.10
2017-06-24T18:44:06.601Z,26.50
2017-06-24T18:46:34.138Z,26.50
2017-06-24T18:49:01.683Z,26.70
2017-06-24T18:51:29.997Z,27.10
2017-06-24T18:53:57.553Z,27.10
2017-06-24T18:56:25.073Z,27.10
2017-06-24T18:58:52.593Z,27.70
2017-06-24T19:01:20.135Z,27.60
2017-06-24T19:03:47.658Z,27.50
2017-06-24T19:06:15.970Z,28.00
2017-06-24T19:08:43.498Z,28.00
2017-06-24T19:11:11.034Z,28.40
2017-06-24T19:13:39.322Z,28.60
2017-06-24T19:16:07.640Z,28.90
2017-06-24T19:18:35.162Z,28.90
2017-06-24T19:21:03.471Z,29.10
2017-06-24T19:23:31.020Z,29.00
2017-06-24T19:25:58.560Z,29.30
2017-06-24T19:28:26.084Z,29.70
2017-06-24T19:30:53.638Z,29.70
2017-06-24T19:33:21.162Z,29.90
2017-06-24T19:35:48.683Z,30.00
2017-06-24T19:38:16.987Z,30.70
2017-06-24T19:40:44.529Z,30.70
2017-06-24T19:43:12.047Z,30.60
2017-06-24T19:45:39.592Z,30.90
2017-06-24T19:48:07.140Z,31.00
2017-06-24T19:50:34.659Z,31.00
2017-06-24T19:53:02.964Z,31.80
2017-06-24T19:55:30.498Z,31.70
2017-06-24T19:57:58.034Z,32.20
2017-06-24T20:00:26.328Z,32.30
2017-06-24T20:02:54.646Z,32.50
2017-06-24T20:05:22.173Z,32.50
2017-06-24T20:07:49.721Z,32.60
2017-06-24T20:10:17.242Z,32.60
2017-06-24T20:12:45.616Z,32.70
2017-06-24T20:15:13.155Z,33.20
2017-06-24T20:17:40.679Z,32.80
2017-06-24T20:20:08.219Z,32.90
2017-06-24T20:22:36.510Z,33.50
2017-06-24T20:25:04.066Z,33.50
2017-06-24T20:27:32.359Z,33.90
2017-06-24T20:29:59.910Z,33.90
2017-06-24T20:32:27.633Z,34.20
2017-06-24T20:34:55.242Z,34.20
2017-06-24T20:37:22.763Z,34.50
2017-06-24T20:39:50.294Z,34.00
2017-06-24T20:42:17.830Z,34.00
2017-06-24T20:44:45.359Z,34.00
2017-06-24T20:47:16.954Z,34.70
2017-06-24T20:49:44.477Z,34.70
2017-06-24T20:52:12.026Z,35.40
2017-06-24T20:54:40.326Z,34.60
2017-06-24T20:57:08.028Z,34.60
2017-06-24T20:59:35.549Z,34.90
2017-06-24T21:02:03.091Z,35.20
2017-06-24T21:04:30.630Z,35.70
2017-06-24T21:06:58.920Z,36.30
2017-06-24T21:09:26.467Z,36.30
2017-06-24T21:11:54.757Z,36.60
2017-06-24T21:14:23.067Z,37.00
2017-06-24T21:16:50.585Z,37.00
2017-06-24T21:19:18.889Z,37.80
2017-06-24T21:21:46.466Z,37.80
2017-06-24T21:24:13.986Z,38.00
2017-06-24T21:26:42.401Z,38.30
2017-06-24T21:29:09.926Z,38.20
2017-06-24T21:31:37.478Z,38.40
2017-06-24T21:34:05.002Z,38.40
2017-06-24T21:36:32.517Z,38.70
2017-06-24T21:39:00.069Z,39.10
2017-06-24T21:41:27.598Z,39.40
2017-06-24T21:43:55.147Z,39.80
2017-06-24T21:46:22.669Z,40.20
2017-06-24T21:48:50.218Z,40.20
2017-06-24T21:51:17.739Z,40.30
2017-06-24T21:53:46.022Z,39.80
2017-06-24T21:56:14.340Z,40.30
2017-06-24T21:58:41.879Z,40.30
2017-06-24T22:01:09.426Z,40.50
2017-06-24T22:03:36.946Z,40.40
2017-06-24T22:06:04.494Z,40.90
2017-06-24T22:08:32.027Z,40.80
2017-06-24T22:10:59.545Z,41.50
2017-06-24T22:13:27.861Z,41.60
2017-06-24T22:15:55.395Z,41.60
2017-06-24T22:18:22.938Z,42.30
2017-06-24T22:20:51.235Z,42.70
2017-06-24T22:23:18.895Z,42.90
2017-06-24T22:25:46.438Z,42.40
2017-06-24T22:28:20.477Z,43.10
2017-06-24T22:30:48.017Z,43.10
2017-06-24T22:33:16.308Z,43.20
2017-06-24T22:35:43.862Z,43.20
2017-06-24T22:38:11.406Z,43.00
2017-06-24T22:40:40.519Z,43.20
2017-06-24T22:43:08.052Z,43.20
2017-06-24T22:45:36.350Z,43.10
2017-06-24T22:48:03.903Z,43.00
2017-06-24T22:50:32.194Z,43.80
2017-06-24T22:52:59.958Z,43.60
2017-06-24T22:55:27.477Z,43.90
2017-06-24T22:57:55.034Z,44.20
2017-06-24T23:00:22.557Z,44.20
2017-06-24T23:02:50.107Z,44.20
2017-06-24T23:05:17.638Z,44.60
2017-06-24T23:07:45.946Z,44.70
2017-06-24T23:10:13.477Z,44.70
2017-06-24T23:12:41.007Z,45.00
2017-06-24T23:15:08.570Z,45.40
2017-06-24T23:17:36.862Z,46.50
2017-06-24T23:20:05.167Z,46.80
2017-06-24T23:22:32.698Z,46.10
2017-06-24T23:25:01.006Z,46.10
2017-06-24T23:27:28.540Z,46.10
2017-06-24T23:29:56.100Z,46.10
2017-06-24T23:32:23.622Z,47.00
2017-06-24T23:34:51.186Z,46.20
2017-06-24T23:37:18.713Z,46.50
2017-06-24T23:39:46.239Z,46.50
2017-06-24T23:42:13.779Z,47.00
2017-06-24T23:44:42.068Z,47.60
2017-06-24T23:47:09.614Z,47.60
2017-06-24T23:49:37.903Z,48.00
2017-06-24T23:52:05.450Z,48.80
2017-06-24T23:54:33.782Z,48.80
2017-06-24T23:57:01.327Z,48.70
2017-06-24T23:59:28.852Z,50.40
